Time;durP1;ratioP1;P1;durP2;ratioP2;P2;SDS_P1;SDS_P2;PMS_P1;PMS_P2;Temp;Humidity;BMP_temperature;BMP_pressure;BME280_temperature;BME280_humidity;BME280_pressure;Samples;Min_cycle;Max_cycle;Signal;HPM_P1;HPM_P2
2023/09/27 00:00:31;;;;;;;6.70;5.80;;;;;;;23.06;58.55;99132.86;105178;1262;65318;-42
2023/09/27 00:02:59;;;;;;;7.20;6.30;;;;;;;23.06;58.55;99130.67;105112;1261;72474;-42
2023/09/27 00:05:27;;;;;;;7.50;6.20;;;;;;;23.06;58.56;99130.84;105297;1262;61244;-42
2023/09/27 00:07:56;;;;;;;9.10;6.00;;;;;;;23.06;58.49;99127.23;105244;1262;61267;-43
2023/09/27 00:10:24;;;;;;;6.80;6.00;;;;;;;23.05;58.41;99126.76;105264;1260;73503;-42
2023/09/27 00:12:51;;;;;;;6.60;5.50;;;;;;;23.06;58.45;99128.73;105281;1262;61250;-42
2023/09/27 00:15:18;;;;;;;10.10;6.20;;;;;;;23.05;58.52;99126.67;105147;1259;72269;-43
2023/09/27 00:17:46;;;;;;;8.30;6.40;;;;;;;23.04;58.48;99126.88;105213;1262;61256;-44
2023/09/27 00:20:17;;;;;;;10.10;6.30;;;;;;;23.05;58.67;99129.25;105214;1260;61324;-42
2023/09/27 00:22:45;;;;;;;7.50;5.80;;;;;;;23.05;58.48;99127.05;105134;1258;74616;-42
2023/09/27 00:25:14;;;;;;;7.50;6.30;;;;;;;23.04;58.52;99127.23;105388;1262;66084;-41
2023/09/27 00:27:42;;;;;;;8.80;6.00;;;;;;;23.04;58.49;99126.37;105166;1264;71225;-42
2023/09/27 00:30:13;;;;;;;6.90;6.00;;;;;;;23.03;58.55;99124.96;105300;1257;61145;-42
2023/09/27 00:32:44;;;;;;;9.10;6.60;;;;;;;23.03;58.69;99121.70;105121;1261;61240;-42
2023/09/27 00:35:21;;;;;;;8.60;6.30;;;;;;;23.03;58.50;99122.06;105196;1262;75048;-43
2023/09/27 00:37:51;;;;;;;9.00;6.50;;;;;;;23.03;58.66;99123.55;105359;1262;66101;-44
2023/09/27 00:40:22;;;;;;;7.80;6.40;;;;;;;23.02;58.62;99121.74;105193;1258;72479;-42
2023/09/27 00:42:49;;;;;;;8.20;6.50;;;;;;;23.02;58.50;99124.61;105282;1262;61971;-42
2023/09/27 00:45:18;;;;;;;8.60;6.20;;;;;;;23.02;58.56;99125.86;105196;1260;61266;-44
2023/09/27 00:47:47;;;;;;;8.20;6.40;;;;;;;23.02;58.62;99122.73;105162;1263;74393;-42
2023/09/27 00:50:14;;;;;;;10.00;6.90;;;;;;;23.01;58.48;99120.60;105242;1258;66428;-43
2023/09/27 00:52:42;;;;;;;7.60;6.40;;;;;;;23.01;58.55;99120.05;105102;1260;72424;-44
2023/09/27 00:55:11;;;;;;;8.90;6.20;;;;;;;23.01;58.61;99118.17;105266;1262;61245;-41
2023/09/27 00:57:39;;;;;;;8.90;6.70;;;;;;;23.00;58.60;99112.23;105356;1259;61355;-42
2023/09/27 01:00:10;;;;;;;8.10;6.60;;;;;;;23.00;58.77;99117.52;105179;1260;74660;-42
2023/09/27 01:02:41;;;;;;;6.80;6.10;;;;;;;23.00;58.62;99114.93;105230;1259;64307;-42
2023/09/27 01:05:09;;;;;;;10.00;6.70;;;;;;;23.00;58.83;99119.95;105519;1260;72596;-42
2023/09/27 01:07:38;;;;;;;9.80;6.70;;;;;;;22.99;58.62;99118.66;105113;1264;61318;-41
2023/09/27 01:10:07;;;;;;;9.20;6.50;;;;;;;22.98;58.52;99119.90;105153;1260;61340;-44
2023/09/27 01:12:36;;;;;;;9.90;6.80;;;;;;;22.98;58.73;99117.56;105175;1262;74697;-43
2023/09/27 01:15:08;;;;;;;8.90;6.70;;;;;;;22.98;58.68;99120.29;105205;1258;64810;-43
2023/09/27 01:17:35;;;;;;;7.50;6.40;;;;;;;22.98;58.67;99124.65;105118;1260;72603;-44
2023/09/27 01:20:06;;;;;;;7.60;6.70;;;;;;;22.98;58.68;99122.87;105255;1260;61323;-42
2023/09/27 01:22:33;;;;;;;7.50;6.70;;;;;;;22.98;58.66;99122.23;105180;1257;61157;-42
2023/09/27 01:25:01;;;;;;;6.70;6.10;;;;;;;22.97;58.70;99121.42;105096;1260;74679;-42
2023/09/27 01:27:29;;;;;;;7.20;6.40;;;;;;;22.97;58.71;99123.91;105162;1262;65241;-42
2023/09/27 01:29:57;;;;;;;10.60;6.80;;;;;;;22.97;58.69;99125.71;105156;1259;72332;-42
2023/09/27 01:32:24;;;;;;;7.70;6.60;;;;;;;22.97;58.71;99126.88;105221;1262;61301;-42
2023/09/27 01:34:52;;;;;;;12.80;6.80;;;;;;;22.97;58.52;99124.52;105212;1260;61425;-42
2023/09/27 01:37:19;;;;;;;7.30;6.50;;;;;;;22.96;58.69;99122.95;105267;1260;74608;-42
2023/09/27 01:39:46;;;;;;;8.30;6.40;;;;;;;22.95;58.62;99121.68;105157;1260;65914;-42
2023/09/27 01:42:14;;;;;;;8.20;6.20;;;;;;;22.96;58.67;99122.39;105200;1260;72464;-44
2023/09/27 01:44:42;;;;;;;7.40;6.60;;;;;;;22.95;58.75;99119.73;105237;1262;61349;-42
2023/09/27 01:47:10;;;;;;;7.40;6.60;;;;;;;22.95;58.68;99115.80;105172;1260;61308;-42
2023/09/27 01:49:37;;;;;;;8.60;7.00;;;;;;;22.95;58.79;99117.29;105111;1260;74297;-42
2023/09/27 01:52:04;;;;;;;7.60;6.70;;;;;;;22.94;58.74;99116.66;105249;1262;65318;-42
2023/09/27 01:54:32;;;;;;;10.10;7.30;;;;;;;22.94;58.71;99116.88;105146;1259;72646;-43
2023/09/27 01:57:00;;;;;;;9.00;7.00;;;;;;;22.94;58.90;99116.48;105254;1262;61369;-42
2023/09/27 01:59:27;;;;;;;7.90;6.80;;;;;;;22.93;58.75;99112.48;105024;1263;61279;-42
2023/09/27 02:01:54;;;;;;;8.70;6.60;;;;;;;22.93;58.71;99112.24;105195;1262;74438;-42
2023/09/27 02:04:22;;;;;;;8.00;6.50;;;;;;;22.92;58.87;99112.91;105271;1262;64898;-42
2023/09/27 02:06:50;;;;;;;8.70;6.90;;;;;;;22.92;58.62;99114.02;105170;1260;72679;-42
2023/09/27 02:09:18;;;;;;;7.40;6.70;;;;;;;22.93;58.84;99111.45;105162;1260;61274;-42
2023/09/27 02:11:46;;;;;;;9.50;7.00;;;;;;;22.92;58.86;99110.09;105177;1260;61941;-42
2023/09/27 02:14:13;;;;;;;9.00;6.90;;;;;;;22.92;58.86;99107.59;105200;1262;74378;-42
2023/09/27 02:16:43;;;;;;;7.40;6.60;;;;;;;22.92;58.81;99111.10;105078;1262;65666;-42
2023/09/27 02:19:10;;;;;;;8.60;7.00;;;;;;;22.91;58.82;99109.31;105278;1263;72655;-42
2023/09/27 02:21:39;;;;;;;8.70;7.20;;;;;;;22.91;58.72;99109.83;105218;1262;61266;-43
2023/09/27 02:24:09;;;;;;;7.60;6.90;;;;;;;22.91;58.79;99108.75;105356;1257;61355;-42
2023/09/27 02:26:36;;;;;;;9.90;7.30;;;;;;;22.90;58.80;99106.09;105169;1262;74594;-42
2023/09/27 02:29:05;;;;;;;9.60;7.40;;;;;;;22.90;58.81;99108.23;105273;1262;65057;-41
2023/09/27 02:31:32;;;;;;;10.70;6.90;;;;;;;22.89;58.55;99110.48;105405;1262;71758;-42
2023/09/27 02:34:00;;;;;;;9.90;7.30;;;;;;;22.89;58.76;99111.03;105389;1262;61272;-42
2023/09/27 02:36:28;;;;;;;8.60;7.10;;;;;;;22.89;58.60;99108.44;105374;1260;61214;-41
2023/09/27 02:38:55;;;;;;;8.40;7.00;;;;;;;22.89;58.56;99110.30;105424;1262;74589;-42
2023/09/27 02:41:22;;;;;;;7.70;6.90;;;;;;;22.88;58.71;99110.08;105411;1262;66177;-42
2023/09/27 02:43:50;;;;;;;8.90;7.40;;;;;;;22.88;58.71;99111.70;105446;1262;72694;-42
2023/09/27 02:46:17;;;;;;;9.10;7.30;;;;;;;22.88;58.45;99112.70;105156;1262;61231;-42
2023/09/27 02:48:45;;;;;;;8.70;7.20;;;;;;;22.87;58.51;99109.89;105164;1260;61378;-42
2023/09/27 02:51:15;;;;;;;7.50;6.70;;;;;;;22.87;58.37;99109.64;105238;1259;74713;-42
2023/09/27 02:53:44;;;;;;;8.10;7.30;;;;;;;22.86;58.60;99110.48;105522;1261;65432;-41
2023/09/27 02:56:11;;;;;;;10.50;7.40;;;;;;;22.87;58.38;99113.30;105163;1260;72704;-42
2023/09/27 02:58:39;;;;;;;9.60;7.00;;;;;;;22.86;58.61;99109.63;105371;1259;61282;-42
2023/09/27 03:01:07;;;;;;;8.50;7.30;;;;;;;22.86;58.48;99112.96;105372;1260;61359;-42
2023/09/27 03:03:34;;;;;;;12.50;7.20;;;;;;;22.86;58.47;99109.14;105395;1258;73393;-42
2023/09/27 03:06:03;;;;;;;8.60;7.00;;;;;;;22.85;58.56;99112.16;105280;1259;66025;-42
2023/09/27 03:08:31;;;;;;;7.80;7.00;;;;;;;22.85;58.59;99109.81;105338;1260;72447;-43
2023/09/27 03:11:03;;;;;;;9.50;7.20;;;;;;;22.85;58.57;99113.39;105204;1264;61298;-44
2023/09/27 03:13:31;;;;;;;12.30;7.30;;;;;;;22.85;58.47;99108.70;105176;1258;61372;-44
2023/09/27 03:15:59;;;;;;;12.20;7.50;;;;;;;22.84;58.34;99110.71;105329;1257;73526;-44
2023/09/27 03:18:26;;;;;;;8.20;7.20;;;;;;;22.84;58.30;99110.17;105273;1260;65506;-42
2023/09/27 03:20:54;;;;;;;7.70;6.80;;;;;;;22.83;58.38;99110.68;105080;1260;72425;-42
2023/09/27 03:23:21;;;;;;;7.70;6.90;;;;;;;22.84;58.43;99111.09;105297;1262;61243;-42
2023/09/27 03:25:49;;;;;;;8.00;7.00;;;;;;;22.83;58.35;99113.48;105112;1258;61379;-42
2023/09/27 03:28:17;;;;;;;10.40;7.40;;;;;;;22.83;58.48;99112.32;105493;1260;74899;-43
2023/09/27 03:30:46;;;;;;;10.30;7.40;;;;;;;22.82;58.60;99111.04;105163;1262;66253;-42
2023/09/27 03:33:14;;;;;;;10.00;6.80;;;;;;;22.82;58.34;99114.08;105538;1259;71787;-42
2023/09/27 03:35:41;;;;;;;10.40;7.60;;;;;;;22.82;58.43;99110.48;105145;1262;61244;-42
2023/09/27 03:38:09;;;;;;;8.30;7.00;;;;;;;22.81;58.44;99114.38;105627;1257;61154;-43
2023/09/27 03:40:39;;;;;;;9.20;7.00;;;;;;;22.81;58.44;99118.90;105275;1264;73699;-41
2023/09/27 03:43:07;;;;;;;7.50;6.70;;;;;;;22.81;58.37;99115.86;105094;1264;65111;-42
2023/09/27 03:45:35;;;;;;;8.10;7.10;;;;;;;22.81;58.16;99114.45;105263;1263;73023;-41
2023/09/27 03:48:03;;;;;;;7.50;6.70;;;;;;;22.80;58.15;99109.89;105295;1262;61254;-41
2023/09/27 03:50:31;;;;;;;8.60;7.20;;;;;;;22.81;58.37;99108.11;105106;1259;61205;-43
2023/09/27 03:52:58;;;;;;;8.10;7.20;;;;;;;22.80;58.11;99107.33;105245;1260;74569;-41
2023/09/27 03:55:27;;;;;;;8.00;7.10;;;;;;;22.80;58.19;99105.42;105217;1259;66889;-42
2023/09/27 03:57:56;;;;;;;8.30;7.10;;;;;;;22.79;58.15;99105.89;105095;1259;74418;-41
2023/09/27 04:00:23;;;;;;;9.10;7.70;;;;;;;22.79;58.16;99106.35;105181;1262;61222;-41
2023/09/27 04:02:53;;;;;;;7.60;6.80;;;;;;;22.80;58.19;99110.81;105140;1259;61295;-42
2023/09/27 04:05:23;;;;;;;9.30;7.40;;;;;;;22.79;58.01;99112.03;105033;1259;74609;-47
2023/09/27 04:07:51;;;;;;;8.90;7.40;;;;;;;22.79;58.24;99110.02;105076;1263;66149;-42
2023/09/27 04:10:19;;;;;;;8.80;7.40;;;;;;;22.79;58.20;99112.20;105033;1264;72736;-43
2023/09/27 04:12:47;;;;;;;9.40;7.30;;;;;;;22.78;58.04;99112.55;105051;1262;61973;-42
2023/09/27 04:15:16;;;;;;;8.30;7.20;;;;;;;22.78;58.17;99111.85;105196;1262;61341;-42
2023/09/27 04:17:43;;;;;;;11.00;7.50;;;;;;;22.78;58.10;99114.03;105177;1262;74599;-41
2023/09/27 04:20:17;;;;;;;10.70;7.10;;;;;;;22.77;57.94;99113.33;105072;1262;66014;-42
2023/09/27 04:22:45;;;;;;;8.70;6.80;;;;;;;22.77;57.94;99114.02;105275;1260;71695;-42
2023/09/27 04:25:14;;;;;;;8.70;7.40;;;;;;;22.78;57.94;99113.09;105330;1262;61366;-41
2023/09/27 04:27:43;;;;;;;10.70;7.00;;;;;;;22.77;58.00;99115.02;107184;1262;61145;-41
2023/09/27 04:30:19;;;;;;;7.90;6.80;;;;;;;22.77;58.14;99115.09;108938;1259;75062;-42
2023/09/27 04:32:50;;;;;;;7.80;6.90;;;;;;;22.77;58.01;99115.89;106612;1259;65020;-41
2023/09/27 04:35:19;;;;;;;8.40;7.00;;;;;;;22.77;57.88;99119.24;105145;1259;72450;-42
2023/09/27 04:37:47;;;;;;;9.80;7.20;;;;;;;22.78;58.09;99122.94;105071;1259;61365;-42
2023/09/27 04:40:14;;;;;;;9.00;7.00;;;;;;;22.78;57.70;99122.94;105170;1260;61319;-42
2023/09/27 04:42:42;;;;;;;8.60;6.80;;;;;;;22.78;58.04;99124.34;108381;1259;74335;-42
2023/09/27 04:45:11;;;;;;;9.40;7.80;;;;;;;22.78;57.78;99124.89;105145;1260;67551;-43
2023/09/27 04:47:40;;;;;;;10.50;7.30;;;;;;;22.78;57.68;99124.34;105293;1259;72604;-41
2023/09/27 04:50:10;;;;;;;9.20;7.10;;;;;;;22.78;57.71;99121.23;105045;1259;61932;-42
2023/09/27 04:52:38;;;;;;;10.70;7.70;;;;;;;22.78;57.84;99126.83;107457;1259;61136;-42
2023/09/27 04:55:07;;;;;;;10.80;6.80;;;;;;;22.78;57.67;99129.17;107398;1259;74553;-42
2023/09/27 04:57:35;;;;;;;8.20;7.00;;;;;;;22.78;57.83;99130.13;107432;1260;67219;-42
2023/09/27 05:00:04;;;;;;;8.00;7.10;;;;;;;22.78;57.74;99131.20;105194;1260;72609;-42
2023/09/27 05:02:31;;;;;;;9.60;7.40;;;;;;;22.78;57.76;99134.56;105132;1257;61436;-42
2023/09/27 05:04:59;;;;;;;8.70;7.00;;;;;;;22.78;57.68;99130.74;105135;1259;61258;-44
2023/09/27 05:07:26;;;;;;;9.00;6.80;;;;;;;22.78;57.78;99127.54;105146;1258;75420;-43
2023/09/27 05:09:54;;;;;;;7.70;7.00;;;;;;;22.77;57.90;99131.49;105033;1262;65833;-44
2023/09/27 05:12:22;;;;;;;8.40;7.40;;;;;;;22.77;58.02;99128.30;105007;1259;73345;-44
2023/09/27 05:14:49;;;;;;;11.40;7.70;;;;;;;22.76;58.19;99128.27;108894;1257;60423;-44
2023/09/27 05:17:16;;;;;;;12.30;7.10;;;;;;;22.76;58.15;99129.52;107645;1259;61382;-46
2023/09/27 05:19:44;;;;;;;8.10;7.10;;;;;;;22.77;58.31;99131.80;104956;1260;74614;-49
2023/09/27 05:22:12;;;;;;;11.70;7.80;;;;;;;22.78;58.64;99129.56;104868;1259;66336;-39
2023/09/27 05:24:39;;;;;;;12.60;7.70;;;;;;;22.79;58.80;99129.73;104885;1258;73183;-45
2023/09/27 05:27:07;;;;;;;8.50;7.00;;;;;;;22.80;59.09;99132.52;105204;1260;61384;-43
2023/09/27 05:29:35;;;;;;;10.00;7.40;;;;;;;22.81;59.16;99135.45;105328;1260;61315;-47
2023/09/27 05:32:03;;;;;;;10.60;7.30;;;;;;;22.82;59.21;99135.70;104951;1261;74649;-48
2023/09/27 05:34:31;;;;;;;11.50;7.50;;;;;;;22.82;59.12;99135.94;105199;1261;66855;-45
2023/09/27 05:36:58;;;;;;;10.60;7.70;;;;;;;22.84;59.13;99134.75;105047;1262;72606;-44
2023/09/27 05:39:26;;;;;;;8.20;7.10;;;;;;;22.85;59.01;99135.23;104992;1259;61285;-46
2023/09/27 05:41:54;;;;;;;11.50;7.90;;;;;;;22.86;59.28;99133.55;105202;1260;61186;-48
2023/09/27 05:44:21;;;;;;;9.30;7.10;;;;;;;22.87;59.04;99136.71;105258;1262;73318;-50
2023/09/27 05:46:49;;;;;;;8.20;7.20;;;;;;;22.88;59.08;99138.54;105305;1262;65992;-45
2023/09/27 05:49:18;;;;;;;13.10;8.20;;;;;;;22.90;59.20;99141.95;105326;1260;71680;-46
2023/09/27 05:51:46;;;;;;;9.90;7.60;;;;;;;22.90;59.36;99140.95;105101;1261;61263;-46
2023/09/27 05:54:13;;;;;;;10.80;7.90;;;;;;;22.92;59.31;99144.59;105190;1260;61379;-45
2023/09/27 05:56:43;;;;;;;12.00;7.90;;;;;;;22.92;59.44;99145.33;104890;1262;74725;-44
2023/09/27 05:59:11;;;;;;;8.10;7.30;;;;;;;22.93;59.35;99144.25;105423;1262;66048;-45
2023/09/27 06:01:39;;;;;;;9.70;7.10;;;;;;;22.94;59.31;99139.83;105017;1259;71721;-44
2023/09/27 06:04:06;;;;;;;10.60;7.30;;;;;;;22.96;59.50;99145.65;104886;1262;61484;-45
2023/09/27 06:06:36;;;;;;;12.20;7.70;;;;;;;22.96;59.55;99145.90;104836;1258;61298;-44
2023/09/27 06:09:09;;;;;;;13.30;7.60;;;;;;;22.98;59.57;99146.73;104839;1264;75503;-43
2023/09/27 06:11:36;;;;;;;12.50;7.40;;;;;;;22.99;59.54;99144.27;104983;1262;65370;-43
2023/09/27 06:14:13;;;;;;;10.50;7.30;;;;;;;22.99;59.47;99142.88;105407;1257;73460;-44
2023/09/27 06:16:41;;;;;;;10.30;7.40;;;;;;;23.00;59.52;99144.00;104930;1264;61238;-43
2023/09/27 06:19:09;;;;;;;10.30;7.20;;;;;;;23.01;59.73;99145.42;106935;1258;60054;-44
2023/09/27 06:21:37;;;;;;;11.70;7.30;;;;;;;23.02;59.49;99148.65;105419;1259;75754;-44
2023/09/27 06:24:05;;;;;;;12.10;7.90;;;;;;;23.02;59.62;99148.03;107185;1258;66019;-43
2023/09/27 06:26:32;;;;;;;9.70;8.20;;;;;;;23.03;59.77;99153.30;108738;1257;72627;-43
2023/09/27 06:28:59;;;;;;;18.30;8.00;;;;;;;23.04;59.79;99155.98;107204;1259;61355;-44
2023/09/27 06:31:29;;;;;;;10.50;7.70;;;;;;;23.06;59.75;99158.23;106237;1260;61260;-43
2023/09/27 06:33:56;;;;;;;11.90;7.60;;;;;;;23.07;59.89;99159.38;105549;1260;75190;-41
2023/09/27 06:36:27;;;;;;;12.40;8.20;;;;;;;23.08;59.74;99156.88;108828;1259;65959;-42
2023/09/27 06:38:54;;;;;;;9.90;8.10;;;;;;;23.09;59.84;99158.41;106073;1258;72306;-41
2023/09/27 06:41:22;;;;;;;9.30;7.20;;;;;;;23.10;59.59;99159.84;104739;1264;61353;-41
2023/09/27 06:43:50;;;;;;;12.20;7.10;;;;;;;23.10;59.50;99156.33;104989;1260;62392;-41
2023/09/27 06:46:18;;;;;;;12.40;7.60;;;;;;;23.12;59.58;99160.98;104778;1258;74968;-40
2023/09/27 06:48:46;;;;;;;11.20;7.90;;;;;;;23.12;59.14;99161.30;106184;1262;65357;-42
2023/09/27 06:51:14;;;;;;;8.70;7.30;;;;;;;23.12;59.43;99166.54;105320;1258;73106;-41
2023/09/27 06:53:42;;;;;;;11.10;7.50;;;;;;;23.12;59.42;99167.17;104898;1260;61272;-43
2023/09/27 06:56:11;;;;;;;8.80;7.30;;;;;;;23.12;59.19;99164.45;104636;1260;61337;-41
2023/09/27 06:58:40;;;;;;;9.50;7.30;;;;;;;23.12;59.08;99167.94;104884;1260;75074;-42
2023/09/27 07:01:07;;;;;;;10.70;7.70;;;;;;;23.12;59.04;99165.92;105397;1261;66003;-42
2023/09/27 07:03:36;;;;;;;9.00;7.50;;;;;;;23.12;59.08;99165.77;107679;1258;71148;-42
2023/09/27 07:06:06;;;;;;;9.50;7.00;;;;;;;23.12;59.16;99170.14;105151;1262;61257;-41
2023/09/27 07:08:35;;;;;;;10.10;6.80;;;;;;;23.12;59.10;99170.68;104868;1264;61176;-43
2023/09/27 07:11:04;;;;;;;11.30;7.60;;;;;;;23.12;59.05;99170.45;105048;1262;74366;-42
2023/09/27 07:13:32;;;;;;;9.80;7.10;;;;;;;23.12;58.93;99173.57;105126;1262;66617;-43
2023/09/27 07:16:02;;;;;;;14.70;7.30;;;;;;;23.12;58.92;99172.16;105117;1258;72450;-41
2023/09/27 07:18:29;;;;;;;13.50;7.50;;;;;;;23.12;58.64;99174.67;106407;1260;61298;-41
2023/09/27 07:20:57;;;;;;;12.80;7.70;;;;;;;23.12;58.75;99176.14;104874;1260;61377;-41
2023/09/27 07:23:26;;;;;;;9.10;6.90;;;;;;;23.13;58.75;99177.88;105047;1262;75945;-41
2023/09/27 07:25:54;;;;;;;7.80;6.90;;;;;;;23.13;58.79;99179.11;105950;1259;66673;-41
2023/09/27 07:28:22;;;;;;;9.80;7.40;;;;;;;23.12;58.65;99180.45;104930;1273;72789;-42
2023/09/27 07:30:49;;;;;;;8.50;7.10;;;;;;;23.12;58.44;99182.48;106354;1259;61385;-42
2023/09/27 07:33:17;;;;;;;8.60;7.20;;;;;;;23.13;58.42;99187.71;105564;1259;61238;-43
2023/09/27 07:35:46;;;;;;;9.90;7.00;;;;;;;23.13;58.41;99187.02;105118;1258;74912;-42
2023/09/27 07:38:13;;;;;;;8.50;6.70;;;;;;;23.13;58.34;99186.70;108489;1259;65951;-42
2023/09/27 07:40:45;;;;;;;10.90;6.90;;;;;;;23.14;58.24;99184.77;105223;1260;72623;-42
2023/09/27 07:43:14;;;;;;;8.50;6.80;;;;;;;23.14;58.44;99188.69;105784;1261;61762;-42
2023/09/27 07:45:43;;;;;;;10.20;7.30;;;;;;;23.14;58.12;99186.98;105232;1259;61275;-42
2023/09/27 07:48:11;;;;;;;7.80;6.60;;;;;;;23.14;58.10;99185.27;106262;1262;74381;-43
2023/09/27 07:50:39;;;;;;;8.30;6.80;;;;;;;23.15;58.24;99182.31;105843;1261;66659;-43
2023/09/27 07:53:11;;;;;;;11.20;7.00;;;;;;;23.15;58.01;99180.76;105768;1260;73014;-43
2023/09/27 07:55:50;;;;;;;8.80;6.60;;;;;;;23.15;57.99;99180.69;105729;1262;61253;-43
2023/09/27 07:58:18;;;;;;;9.60;6.60;;;;;;;23.15;57.89;99179.59;106111;1259;61333;-42
2023/09/27 08:00:45;;;;;;;10.80;6.70;;;;;;;23.16;57.78;99181.86;104801;1260;75247;-42
2023/09/27 08:03:14;;;;;;;9.90;7.30;;;;;;;23.16;57.81;99178.98;106213;1260;64800;-42
2023/09/27 08:05:45;;;;;;;13.70;7.90;;;;;;;23.17;57.86;99183.52;104907;1260;71037;-42
2023/09/27 08:08:13;;;;;;;10.10;7.30;;;;;;;23.17;57.89;99178.85;105647;1262;61356;-43
2023/09/27 08:10:43;;;;;;;11.70;7.60;;;;;;;23.17;57.74;99178.61;105134;1262;61376;-42
2023/09/27 08:13:14;;;;;;;9.90;7.30;;;;;;;23.17;57.51;99177.13;106236;1259;74612;-42
2023/09/27 08:15:42;;;;;;;10.70;7.10;;;;;;;23.17;57.70;99178.01;105601;1262;66331;-43
2023/09/27 08:18:10;;;;;;;10.10;7.50;;;;;;;23.18;57.22;99181.67;107165;1259;72576;-42
2023/09/27 08:20:40;;;;;;;11.60;6.70;;;;;;;23.18;57.16;99181.91;105548;1262;61369;-43
2023/09/27 08:23:10;;;;;;;10.80;7.40;;;;;;;23.19;57.06;99181.55;106960;1265;60066;-42
2023/09/27 08:25:37;;;;;;;12.10;7.50;;;;;;;23.19;56.93;99184.92;104851;1259;75709;-43
2023/09/27 08:28:06;;;;;;;10.40;8.00;;;;;;;23.19;57.34;99179.40;107400;1261;67646;-43
2023/09/27 08:30:34;;;;;;;11.50;8.40;;;;;;;23.20;57.42;99178.64;108862;1257;72512;-42
2023/09/27 08:33:05;;;;;;;12.70;8.50;;;;;;;23.21;57.70;99176.46;108785;1257;62065;-43
2023/09/27 08:35:32;;;;;;;10.50;8.00;;;;;;;23.23;57.63;99177.77;105711;1260;61273;-42
2023/09/27 08:38:00;;;;;;;11.90;8.20;;;;;;;23.23;57.28;99173.02;104600;1265;76687;-42
2023/09/27 08:40:28;;;;;;;14.30;8.30;;;;;;;23.24;57.07;99175.48;105304;1260;67307;-42
2023/09/27 08:43:00;;;;;;;12.00;7.70;;;;;;;23.25;57.19;99173.16;104877;1259;72689;-43
2023/09/27 08:45:27;;;;;;;10.30;7.50;;;;;;;23.26;57.32;99171.07;106027;1258;61323;-43
2023/09/27 08:47:55;;;;;;;12.50;7.90;;;;;;;23.26;57.23;99168.91;106290;1259;60767;-43
2023/09/27 08:50:23;;;;;;;12.50;6.90;;;;;;;23.27;56.98;99166.11;108785;1259;75108;-44
2023/09/27 08:52:52;;;;;;;12.40;8.50;;;;;;;23.28;56.93;99169.80;106545;1262;66184;-41
2023/09/27 08:55:19;;;;;;;11.30;7.70;;;;;;;23.29;56.90;99167.80;104934;1260;72522;-44
2023/09/27 08:57:49;;;;;;;9.60;7.00;;;;;;;23.30;56.98;99169.73;104499;1265;61372;-42
2023/09/27 09:00:21;;;;;;;8.40;7.20;;;;;;;23.31;56.74;99167.57;105649;1260;61804;-42
2023/09/27 09:02:56;;;;;;;8.60;7.10;;;;;;;23.32;56.46;99165.95;101196;1259;10141548;-43
2023/09/27 09:05:28;;;;;;;11.00;7.00;;;;;;;23.33;56.61;99162.92;105817;1259;61215;-44
2023/09/27 09:08:01;;;;;;;8.10;6.40;;;;;;;23.34;56.49;99165.41;108437;1259;59970;-42
2023/09/27 09:10:28;;;;;;;9.60;6.70;;;;;;;23.35;56.47;99163.34;104921;1264;75759;-42
2023/09/27 09:12:59;;;;;;;8.50;6.70;;;;;;;23.36;55.99;99164.08;105009;1263;66237;-43
2023/09/27 09:15:40;;;;;;;7.30;5.90;;;;;;;23.37;55.79;99163.64;108787;1259;73497;-46
2023/09/27 09:18:14;;;;;;;8.70;6.60;;;;;;;23.39;55.88;99163.39;105975;1262;61387;-46
2023/09/27 09:20:51;;;;;;;7.40;6.20;;;;;;;23.41;56.13;99162.11;107415;1260;61410;-43
2023/09/27 09:23:30;;;;;;;12.00;6.50;;;;;;;23.44;56.49;99167.13;107961;1259;75590;-43
2023/09/27 09:25:58;;;;;;;10.90;6.20;;;;;;;23.48;56.10;99166.91;108799;1259;66089;-43
2023/09/27 09:28:27;;;;;;;8.20;6.10;;;;;;;23.50;56.11;99160.27;105712;1260;72526;-43
2023/09/27 09:30:55;;;;;;;6.80;5.60;;;;;;;23.52;55.93;99161.65;105001;1264;61320;-43
2023/09/27 09:33:29;;;;;;;6.70;5.60;;;;;;;23.54;55.85;99160.22;104587;1259;61281;-42
2023/09/27 09:35:57;;;;;;;6.90;5.30;;;;;;;23.55;55.79;99162.29;104932;1259;75477;-42
2023/09/27 09:38:30;;;;;;;7.60;5.80;;;;;;;23.56;55.43;99162.39;104607;1264;67428;-43
2023/09/27 09:41:01;;;;;;;8.40;5.50;;;;;;;23.56;55.38;99157.72;107114;1263;73522;-44
2023/09/27 09:43:39;;;;;;;9.00;5.60;;;;;;;23.57;55.53;99160.55;108643;1259;60218;-44
2023/09/27 09:46:08;;;;;;;5.80;4.70;;;;;;;23.57;55.02;99156.42;108710;1259;59460;-44
2023/09/27 09:48:38;;;;;;;6.70;5.50;;;;;;;23.59;54.62;99155.76;105195;1265;75781;-44
2023/09/27 09:51:06;;;;;;;6.70;4.90;;;;;;;23.60;54.35;99159.05;108819;1260;66365;-44
2023/09/27 09:53:39;;;;;;;7.90;5.10;;;;;;;23.61;54.71;99155.66;106957;1259;73786;-42
2023/09/27 09:56:08;;;;;;;8.30;5.20;;;;;;;23.63;54.03;99156.88;108854;1259;60323;-44
2023/09/27 09:58:47;;;;;;;8.80;5.00;;;;;;;23.63;54.02;99149.63;108793;1259;60170;-43
2023/09/27 10:01:18;;;;;;;8.40;5.00;;;;;;;23.64;53.95;99145.30;107493;1257;75785;-43
2023/09/27 10:03:48;;;;;;;6.90;5.10;;;;;;;23.66;54.05;99144.79;104735;1262;66121;-44
2023/09/27 10:06:22;;;;;;;6.50;5.20;;;;;;;23.67;54.36;99147.10;108804;1259;73750;-43
2023/09/27 10:09:13;;;;;;;7.40;4.80;;;;;;;23.68;54.12;99149.84;107880;1257;61230;-43
2023/09/27 10:11:44;;;;;;;6.90;4.60;;;;;;;23.69;53.84;99148.38;105557;1260;61268;-42
2023/09/27 10:14:16;;;;;;;8.10;4.90;;;;;;;23.70;53.88;99145.61;104642;1265;75402;-42
2023/09/27 10:16:44;;;;;;;7.10;4.50;;;;;;;23.71;53.48;99149.70;106076;1265;66308;-42
2023/09/27 10:19:13;;;;;;;6.30;4.30;;;;;;;23.71;53.52;99145.02;106235;1259;72733;-43
2023/09/27 10:22:01;;;;;;;9.50;4.70;;;;;;;23.71;53.56;99143.14;107191;1259;61267;-40
2023/09/27 10:24:29;;;;;;;8.10;4.70;;;;;;;23.73;53.92;99146.63;105876;1260;59922;-40
2023/09/27 10:26:56;;;;;;;7.90;4.60;;;;;;;23.74;53.64;99142.27;108023;1257;75008;-43
2023/09/27 10:29:24;;;;;;;5.30;3.90;;;;;;;23.74;54.07;99138.92;105714;1258;65721;-44
2023/09/27 10:31:57;;;;;;;6.20;4.20;;;;;;;23.75;53.93;99145.91;105832;1262;74247;-44
2023/09/27 10:34:25;;;;;;;6.90;4.10;;;;;;;23.76;53.76;99144.20;106667;1257;61471;-43
2023/09/27 10:36:53;;;;;;;7.70;4.20;;;;;;;23.75;53.50;99142.94;105076;1258;61346;-45
2023/09/27 10:39:39;;;;;;;6.50;4.10;;;;;;;23.76;53.27;99142.50;104913;1257;73521;-43
2023/09/27 10:42:07;;;;;;;6.00;4.00;;;;;;;23.77;53.57;99143.05;104779;1257;66389;-43
2023/09/27 10:44:36;;;;;;;9.20;4.30;;;;;;;23.77;53.53;99136.09;104764;1257;72527;-42
2023/09/27 10:47:04;;;;;;;8.10;4.30;;;;;;;23.77;53.19;99134.38;105544;1258;61273;-43
2023/09/27 10:49:39;;;;;;;5.30;3.90;;;;;;;23.78;52.84;99132.45;105439;1260;61212;-43
2023/09/27 10:52:17;;;;;;;4.50;3.80;;;;;;;23.78;52.90;99132.93;104747;1265;74796;-42
2023/09/27 10:54:45;;;;;;;4.90;3.80;;;;;;;23.78;52.75;99130.36;108355;1260;66420;-43
2023/09/27 10:57:13;;;;;;;5.80;4.00;;;;;;;23.78;52.63;99126.35;108898;1260;73532;-43
2023/09/27 10:59:41;;;;;;;5.90;3.50;;;;;;;23.78;52.77;99126.45;105569;1265;61472;-43
2023/09/27 11:02:08;;;;;;;7.10;3.80;;;;;;;23.79;52.71;99123.41;105052;1262;61125;-42
2023/09/27 11:04:37;;;;;;;5.60;3.60;;;;;;;23.79;52.54;99119.20;105288;1260;75506;-45
2023/09/27 11:07:04;;;;;;;4.40;4.00;;;;;;;23.80;52.47;99113.05;107715;1262;66836;-44
2023/09/27 11:09:32;;;;;;;5.50;3.40;;;;;;;23.81;52.48;99111.92;104749;1260;73862;-43
2023/09/27 11:12:00;;;;;;;4.20;3.40;;;;;;;23.82;52.52;99109.75;105051;1265;61307;-38
2023/09/27 11:14:31;;;;;;;7.60;3.90;;;;;;;23.83;52.47;99107.27;105223;1260;61231;-51
2023/09/27 11:17:22;;;;;;;7.10;3.40;;;;;;;23.85;52.39;99106.47;105184;1262;75467;-49
2023/09/27 11:19:50;;;;;;;8.00;3.90;;;;;;;23.88;52.92;99108.27;105213;1262;67132;-45
2023/09/27 11:22:28;;;;;;;7.20;3.80;;;;;;;23.92;53.34;99102.66;105293;1262;72124;-53
2023/09/27 11:24:55;;;;;;;4.60;3.40;;;;;;;23.95;53.48;99103.37;105097;1262;61488;-56
2023/09/27 11:27:23;;;;;;;5.30;3.40;;;;;;;23.98;53.59;99097.89;105159;1260;61343;-57
2023/09/27 11:29:52;;;;;;;5.10;3.50;;;;;;;24.00;53.37;99100.52;105211;1262;75754;-55